Pagrindinis puslapis
METAR-TAF:

METAR-TAF

Oro uostai :

Sparrevohn, Aliaska, Jungtinės Amerikos Valstijos

platuma: 61-06N, ilguma: 155-34W, Aukštis: 484 m

Dabartinis oras

Ataskaita buvo paskelbta 26 minutes, ne 19:33 UTC
Ramus vėjas
Temperatūra -5°C
Drėgmė 93%
Slėgis 1008 hPa
Matomumas: 16.1 km
Mažai debesys ne aukštis 1200 ft
Apsiniaukę ne aukštis 3500 ft
sniegas

METAR: PASV 161933Z AUTO 00000KT 10SM -SHSN FEW012 OVC035 M05/M06 A2977 RMK AO2 SLP126

Laikas: 10:59 (19:59 UTC)


TAF: trūkstamas

Orai ataskaitas ir orų prognozės (METAR, TAF).

turimą stotys yra geltonos ir raudonos taškus žemėlapyje.

Perkelti pele per norėdami pamatyti stoties vardą.

Tada spustelėkite, norėdami matyti oro stebėjimo ir prognozės.

Norėdami pakeisti žemėlapį: spustelėkite ant žalios mygtukų su juodo kryžiaus žemyn,; žalią mygtuką su brūkšneliu, jei norite nutolinti; arba žalių rodyklių gretimoms žemėlapius.


METAR-TAF: